sensor_id;sensor_type;location;lat;lon;timestamp;P1;durP1;ratioP1;P2;durP2;ratioP2
11211;SDS011;5663;50.864;12.096;2022-09-04T00:17:15;3.87;;;3.00;;
11211;SDS011;5663;50.864;12.096;2022-09-04T00:52:08;4.43;;;3.50;;
11211;SDS011;5663;50.864;12.096;2022-09-04T00:54:49;5.67;;;3.60;;
11211;SDS011;5663;50.864;12.096;2022-09-04T01:00:28;4.90;;;3.20;;
11211;SDS011;5663;50.864;12.096;2022-09-04T01:05:59;5.47;;;3.63;;
11211;SDS011;5663;50.864;12.096;2022-09-04T01:12:04;3.23;;;2.93;;
11211;SDS011;5663;50.864;12.096;2022-09-04T01:14:49;4.13;;;3.73;;
11211;SDS011;5663;50.864;12.096;2022-09-04T01:17:34;5.47;;;3.40;;
11211;SDS011;5663;50.864;12.096;2022-09-04T01:20:08;7.37;;;3.50;;
11211;SDS011;5663;50.864;12.096;2022-09-04T01:22:58;4.30;;;3.17;;
11211;SDS011;5663;50.864;12.096;2022-09-04T01:28:31;3.83;;;3.10;;
11211;SDS011;5663;50.864;12.096;2022-09-04T01:31:12;6.73;;;3.50;;
11211;SDS011;5663;50.864;12.096;2022-09-04T01:33:57;4.60;;;3.40;;
11211;SDS011;5663;50.864;12.096;2022-09-04T01:36:40;4.20;;;3.80;;
11211;SDS011;5663;50.864;12.096;2022-09-04T01:39:13;4.17;;;3.70;;
11211;SDS011;5663;50.864;12.096;2022-09-04T01:41:49;5.17;;;3.83;;
11211;SDS011;5663;50.864;12.096;2022-09-04T01:44:34;4.57;;;3.70;;
11211;SDS011;5663;50.864;12.096;2022-09-04T01:47:09;3.77;;;3.00;;
11211;SDS011;5663;50.864;12.096;2022-09-04T01:49:41;3.53;;;3.23;;
11211;SDS011;5663;50.864;12.096;2022-09-04T01:52:22;4.10;;;3.70;;
11211;SDS011;5663;50.864;12.096;2022-09-04T01:55:01;4.70;;;3.60;;
11211;SDS011;5663;50.864;12.096;2022-09-04T01:57:45;6.60;;;4.10;;
11211;SDS011;5663;50.864;12.096;2022-09-04T02:00:26;5.73;;;3.47;;
11211;SDS011;5663;50.864;12.096;2022-09-04T02:03:01;4.90;;;4.03;;
11211;SDS011;5663;50.864;12.096;2022-09-04T02:05:46;5.33;;;3.80;;
11211;SDS011;5663;50.864;12.096;2022-09-04T02:11:12;4.40;;;4.00;;
11211;SDS011;5663;50.864;12.096;2022-09-04T02:13:52;5.57;;;3.90;;
11211;SDS011;5663;50.864;12.096;2022-09-04T02:16:35;3.87;;;3.40;;
11211;SDS011;5663;50.864;12.096;2022-09-04T02:19:16;3.70;;;3.37;;
11211;SDS011;5663;50.864;12.096;2022-09-04T02:21:55;4.40;;;3.43;;
11211;SDS011;5663;50.864;12.096;2022-09-04T02:24:29;3.80;;;3.50;;
11211;SDS011;5663;50.864;12.096;2022-09-04T02:27:09;3.40;;;3.10;;
11211;SDS011;5663;50.864;12.096;2022-09-04T02:29:45;4.63;;;3.23;;
11211;SDS011;5663;50.864;12.096;2022-09-04T02:32:24;4.77;;;4.30;;
11211;SDS011;5663;50.864;12.096;2022-09-04T02:35:04;7.93;;;5.03;;
11211;SDS011;5663;50.864;12.096;2022-09-04T02:37:43;4.93;;;4.43;;
11211;SDS011;5663;50.864;12.096;2022-09-04T02:40:19;5.13;;;4.40;;
11211;SDS011;5663;50.864;12.096;2022-09-04T02:42:59;7.50;;;4.00;;
11211;SDS011;5663;50.864;12.096;2022-09-04T02:45:43;3.93;;;3.60;;
11211;SDS011;5663;50.864;12.096;2022-09-04T02:48:30;4.33;;;3.93;;
11211;SDS011;5663;50.864;12.096;2022-09-04T02:51:08;5.27;;;3.80;;
11211;SDS011;5663;50.864;12.096;2022-09-04T02:53:53;5.17;;;3.97;;
11211;SDS011;5663;50.864;12.096;2022-09-04T02:56:34;5.50;;;4.10;;
11211;SDS011;5663;50.864;12.096;2022-09-04T02:59:23;5.13;;;3.90;;
11211;SDS011;5663;50.864;12.096;2022-09-04T03:01:59;4.40;;;4.00;;
11211;SDS011;5663;50.864;12.096;2022-09-04T03:04:40;4.27;;;3.87;;
11211;SDS011;5663;50.864;12.096;2022-09-04T03:07:23;5.37;;;3.30;;
11211;SDS011;5663;50.864;12.096;2022-09-04T03:10:02;4.37;;;3.63;;
11211;SDS011;5663;50.864;12.096;2022-09-04T03:12:54;4.10;;;3.70;;
11211;SDS011;5663;50.864;12.096;2022-09-04T03:15:31;5.80;;;3.70;;
11211;SDS011;5663;50.864;12.096;2022-09-04T03:18:13;4.50;;;3.60;;
11211;SDS011;5663;50.864;12.096;2022-09-04T03:20:49;4.03;;;3.63;;
11211;SDS011;5663;50.864;12.096;2022-09-04T03:23:39;3.77;;;3.47;;
11211;SDS011;5663;50.864;12.096;2022-09-04T03:26:25;4.30;;;3.87;;
11211;SDS011;5663;50.864;12.096;2022-09-04T03:29:04;5.60;;;4.47;;
11211;SDS011;5663;50.864;12.096;2022-09-04T03:31:44;6.03;;;4.50;;
11211;SDS011;5663;50.864;12.096;2022-09-04T03:34:29;4.30;;;3.77;;
11211;SDS011;5663;50.864;12.096;2022-09-04T03:37:18;4.20;;;3.80;;
11211;SDS011;5663;50.864;12.096;2022-09-04T03:42:45;4.77;;;4.27;;
11211;SDS011;5663;50.864;12.096;2022-09-04T03:45:26;5.80;;;4.27;;
11211;SDS011;5663;50.864;12.096;2022-09-04T03:48:07;4.73;;;4.33;;
11211;SDS011;5663;50.864;12.096;2022-09-04T03:50:50;7.07;;;4.23;;
11211;SDS011;5663;50.864;12.096;2022-09-04T03:53:31;4.27;;;3.87;;
11211;SDS011;5663;50.864;12.096;2022-09-04T03:56:30;4.07;;;3.40;;
11211;SDS011;5663;50.864;12.096;2022-09-04T03:59:24;3.77;;;3.47;;
11211;SDS011;5663;50.864;12.096;2022-09-04T04:02:01;3.60;;;3.30;;
11211;SDS011;5663;50.864;12.096;2022-09-04T04:04:46;4.77;;;3.50;;
11211;SDS011;5663;50.864;12.096;2022-09-04T04:07:27;5.17;;;3.70;;
11211;SDS011;5663;50.864;12.096;2022-09-04T04:15:55;4.37;;;3.80;;
11211;SDS011;5663;50.864;12.096;2022-09-04T04:21:37;4.27;;;3.27;;
11211;SDS011;5663;50.864;12.096;2022-09-04T04:24:29;4.50;;;3.67;;
11211;SDS011;5663;50.864;12.096;2022-09-04T04:27:12;3.53;;;3.23;;
11211;SDS011;5663;50.864;12.096;2022-09-04T04:32:43;4.30;;;3.90;;
11211;SDS011;5663;50.864;12.096;2022-09-04T04:35:32;4.13;;;3.70;;
11211;SDS011;5663;50.864;12.096;2022-09-04T04:38:15;4.20;;;3.80;;
11211;SDS011;5663;50.864;12.096;2022-09-04T04:40:58;3.90;;;3.60;;
11211;SDS011;5663;50.864;12.096;2022-09-04T04:43:43;4.10;;;3.53;;
11211;SDS011;5663;50.864;12.096;2022-09-04T04:46:27;4.90;;;4.20;;
11211;SDS011;5663;50.864;12.096;2022-09-04T04:49:21;6.00;;;4.53;;
11211;SDS011;5663;50.864;12.096;2022-09-04T04:52:10;4.20;;;3.73;;
11211;SDS011;5663;50.864;12.096;2022-09-04T04:58:09;4.87;;;3.87;;
11211;SDS011;5663;50.864;12.096;2022-09-04T05:00:44;4.43;;;4.03;;
11211;SDS011;5663;50.864;12.096;2022-09-04T05:03:23;4.07;;;3.77;;
11211;SDS011;5663;50.864;12.096;2022-09-04T05:06:01;4.13;;;3.73;;
11211;SDS011;5663;50.864;12.096;2022-09-04T05:08:36;7.27;;;4.53;;
11211;SDS011;5663;50.864;12.096;2022-09-04T05:11:11;5.13;;;4.67;;
11211;SDS011;5663;50.864;12.096;2022-09-04T05:13:54;4.07;;;3.67;;
11211;SDS011;5663;50.864;12.096;2022-09-04T05:16:36;4.33;;;3.93;;
11211;SDS011;5663;50.864;12.096;2022-09-04T05:19:17;6.10;;;4.70;;
11211;SDS011;5663;50.864;12.096;2022-09-04T05:22:07;6.27;;;4.53;;
11211;SDS011;5663;50.864;12.096;2022-09-04T05:24:44;3.97;;;3.57;;
11211;SDS011;5663;50.864;12.096;2022-09-04T05:30:53;5.37;;;3.80;;
11211;SDS011;5663;50.864;12.096;2022-09-04T05:33:27;4.77;;;3.80;;
11211;SDS011;5663;50.864;12.096;2022-09-04T05:36:08;5.13;;;4.10;;
11211;SDS011;5663;50.864;12.096;2022-09-04T05:38:45;4.73;;;4.30;;
11211;SDS011;5663;50.864;12.096;2022-09-04T05:41:30;5.13;;;4.27;;
11211;SDS011;5663;50.864;12.096;2022-09-04T05:44:14;3.87;;;3.57;;
11211;SDS011;5663;50.864;12.096;2022-09-04T05:46:52;4.40;;;4.00;;
11211;SDS011;5663;50.864;12.096;2022-09-04T05:49:33;4.63;;;4.23;;
11211;SDS011;5663;50.864;12.096;2022-09-04T05:52:33;4.93;;;4.43;;
11211;SDS011;5663;50.864;12.096;2022-09-04T05:55:17;5.40;;;4.90;;
11211;SDS011;5663;50.864;12.096;2022-09-04T05:58:03;5.57;;;4.50;;
11211;SDS011;5663;50.864;12.096;2022-09-04T06:00:45;5.33;;;4.43;;
11211;SDS011;5663;50.864;12.096;2022-09-04T06:03:34;4.47;;;4.07;;
11211;SDS011;5663;50.864;12.096;2022-09-04T06:06:19;5.10;;;4.60;;
11211;SDS011;5663;50.864;12.096;2022-09-04T06:15:15;4.80;;;4.40;;
11211;SDS011;5663;50.864;12.096;2022-09-04T06:18:07;4.73;;;4.33;;
11211;SDS011;5663;50.864;12.096;2022-09-04T06:20:52;6.40;;;5.13;;
11211;SDS011;5663;50.864;12.096;2022-09-04T06:23:41;6.73;;;6.20;;
11211;SDS011;5663;50.864;12.096;2022-09-04T06:26:36;7.70;;;6.20;;
11211;SDS011;5663;50.864;12.096;2022-09-04T06:35:48;5.70;;;5.10;;
11211;SDS011;5663;50.864;12.096;2022-09-04T06:38:44;7.70;;;7.00;;
11211;SDS011;5663;50.864;12.096;2022-09-04T06:45:24;12.50;;;7.60;;
11211;SDS011;5663;50.864;12.096;2022-09-04T06:48:25;8.47;;;6.47;;
11211;SDS011;5663;50.864;12.096;2022-09-04T06:51:07;14.97;;;8.93;;
11211;SDS011;5663;50.864;12.096;2022-09-04T06:53:53;8.47;;;7.60;;
11211;SDS011;5663;50.864;12.096;2022-09-04T06:57:00;12.57;;;8.87;;
11211;SDS011;5663;50.864;12.096;2022-09-04T06:59:59;9.07;;;7.33;;
11211;SDS011;5663;50.864;12.096;2022-09-04T07:06:14;7.63;;;5.77;;
11211;SDS011;5663;50.864;12.096;2022-09-04T07:08:55;7.73;;;6.93;;
11211;SDS011;5663;50.864;12.096;2022-09-04T07:11:56;7.30;;;6.60;;
11211;SDS011;5663;50.864;12.096;2022-09-04T07:14:45;7.80;;;6.93;;
11211;SDS011;5663;50.864;12.096;2022-09-04T07:17:23;7.03;;;6.30;;
11211;SDS011;5663;50.864;12.096;2022-09-04T07:20:16;6.07;;;5.50;;
11211;SDS011;5663;50.864;12.096;2022-09-04T07:26:11;7.27;;;5.67;;
11211;SDS011;5663;50.864;12.096;2022-09-04T07:32:28;5.83;;;5.20;;
11211;SDS011;5663;50.864;12.096;2022-09-04T07:35:05;5.23;;;4.73;;
11211;SDS011;5663;50.864;12.096;2022-09-04T07:37:40;8.90;;;4.70;;
11211;SDS011;5663;50.864;12.096;2022-09-04T07:40:14;6.90;;;4.27;;
11211;SDS011;5663;50.864;12.096;2022-09-04T07:43:02;5.53;;;4.33;;
11211;SDS011;5663;50.864;12.096;2022-09-04T07:45:42;4.57;;;4.17;;
11211;SDS011;5663;50.864;12.096;2022-09-04T07:48:47;4.93;;;4.43;;
11211;SDS011;5663;50.864;12.096;2022-09-04T07:51:27;6.93;;;4.43;;
11211;SDS011;5663;50.864;12.096;2022-09-04T07:54:12;4.40;;;3.93;;
11211;SDS011;5663;50.864;12.096;2022-09-04T07:57:07;5.47;;;3.70;;
11211;SDS011;5663;50.864;12.096;2022-09-04T07:59:49;5.63;;;4.20;;
11211;SDS011;5663;50.864;12.096;2022-09-04T08:02:46;4.93;;;4.30;;
11211;SDS011;5663;50.864;12.096;2022-09-04T08:05:28;4.53;;;3.90;;
11211;SDS011;5663;50.864;12.096;2022-09-04T08:11:06;4.30;;;4.00;;
11211;SDS011;5663;50.864;12.096;2022-09-04T08:14:08;4.00;;;3.57;;
11211;SDS011;5663;50.864;12.096;2022-09-04T08:17:13;4.10;;;3.70;;
11211;SDS011;5663;50.864;12.096;2022-09-04T08:20:02;4.87;;;3.30;;
11211;SDS011;5663;50.864;12.096;2022-09-04T08:22:48;3.90;;;3.50;;
11211;SDS011;5663;50.864;12.096;2022-09-04T08:25:26;4.97;;;3.90;;
11211;SDS011;5663;50.864;12.096;2022-09-04T08:28:16;4.33;;;3.70;;
11211;SDS011;5663;50.864;12.096;2022-09-04T08:30:55;28.67;;;4.80;;
11211;SDS011;5663;50.864;12.096;2022-09-04T08:33:36;3.63;;;3.33;;
11211;SDS011;5663;50.864;12.096;2022-09-04T08:36:34;3.80;;;3.50;;
11211;SDS011;5663;50.864;12.096;2022-09-04T08:39:08;3.70;;;3.40;;
11211;SDS011;5663;50.864;12.096;2022-09-04T08:45:26;4.90;;;3.13;;
11211;SDS011;5663;50.864;12.096;2022-09-04T08:54:11;3.63;;;3.00;;
11211;SDS011;5663;50.864;12.096;2022-09-04T08:57:27;3.00;;;2.80;;
11211;SDS011;5663;50.864;12.096;2022-09-04T09:00:28;3.27;;;2.90;;
11211;SDS011;5663;50.864;12.096;2022-09-04T09:52:30;2.15;;;2.03;;
11211;SDS011;5663;50.864;12.096;2022-09-04T09:55:35;2.30;;;2.10;;
11211;SDS011;5663;50.864;12.096;2022-09-04T10:05:20;2.58;;;2.30;;
11211;SDS011;5663;50.864;12.096;2022-09-04T10:35:45;2.80;;;2.60;;
11211;SDS011;5663;50.864;12.096;2022-09-04T10:39:15;2.55;;;2.20;;
11211;SDS011;5663;50.864;12.096;2022-09-04T10:42:41;2.08;;;1.98;;
11211;SDS011;5663;50.864;12.096;2022-09-04T10:45:54;8.25;;;2.58;;
11211;SDS011;5663;50.864;12.096;2022-09-04T10:52:15;2.22;;;2.00;;
11211;SDS011;5663;50.864;12.096;2022-09-04T10:55:15;2.70;;;2.10;;
11211;SDS011;5663;50.864;12.096;2022-09-04T11:01:36;2.83;;;2.13;;
11211;SDS011;5663;50.864;12.096;2022-09-04T11:11:45;2.40;;;2.20;;
11211;SDS011;5663;50.864;12.096;2022-09-04T11:18:48;3.53;;;2.40;;
11211;SDS011;5663;50.864;12.096;2022-09-04T11:45:48;2.17;;;1.90;;
11211;SDS011;5663;50.864;12.096;2022-09-04T11:51:45;3.10;;;2.05;;
11211;SDS011;5663;50.864;12.096;2022-09-04T12:29:29;3.20;;;1.95;;
11211;SDS011;5663;50.864;12.096;2022-09-04T12:39:14;2.13;;;1.90;;
11211;SDS011;5663;50.864;12.096;2022-09-04T12:42:34;2.28;;;1.77;;
11211;SDS011;5663;50.864;12.096;2022-09-04T12:45:23;3.58;;;1.83;;
11211;SDS011;5663;50.864;12.096;2022-09-04T12:48:05;14.07;;;2.38;;
11211;SDS011;5663;50.864;12.096;2022-09-04T12:50:43;23.98;;;2.90;;
11211;SDS011;5663;50.864;12.096;2022-09-04T13:03:45;2.67;;;1.75;;
11211;SDS011;5663;50.864;12.096;2022-09-04T13:07:20;2.10;;;1.70;;
11211;SDS011;5663;50.864;12.096;2022-09-04T13:10:06;1.90;;;1.75;;
11211;SDS011;5663;50.864;12.096;2022-09-04T13:12:52;2.42;;;1.50;;
11211;SDS011;5663;50.864;12.096;2022-09-04T13:15:39;2.80;;;1.77;;
11211;SDS011;5663;50.864;12.096;2022-09-04T13:27:56;1.75;;;1.65;;
11211;SDS011;5663;50.864;12.096;2022-09-04T13:31:34;2.00;;;1.90;;
11211;SDS011;5663;50.864;12.096;2022-09-04T13:35:11;2.53;;;1.83;;
11211;SDS011;5663;50.864;12.096;2022-09-04T13:38:26;4.05;;;1.80;;
11211;SDS011;5663;50.864;12.096;2022-09-04T13:41:16;1.90;;;1.70;;
11211;SDS011;5663;50.864;12.096;2022-09-04T13:44:34;2.03;;;1.92;;
11211;SDS011;5663;50.864;12.096;2022-09-04T13:54:40;1.80;;;1.70;;
11211;SDS011;5663;50.864;12.096;2022-09-04T13:57:47;2.30;;;2.10;;
11211;SDS011;5663;50.864;12.096;2022-09-04T14:01:07;2.30;;;2.10;;
11211;SDS011;5663;50.864;12.096;2022-09-04T14:07:16;2.00;;;1.90;;
11211;SDS011;5663;50.864;12.096;2022-09-04T14:44:28;3.22;;;2.00;;
11211;SDS011;5663;50.864;12.096;2022-09-04T14:47:38;2.05;;;1.67;;
11211;SDS011;5663;50.864;12.096;2022-09-04T14:50:24;2.75;;;1.98;;
11211;SDS011;5663;50.864;12.096;2022-09-04T14:53:21;2.85;;;1.80;;
11211;SDS011;5663;50.864;12.096;2022-09-04T15:03:08;2.55;;;2.05;;
11211;SDS011;5663;50.864;12.096;2022-09-04T15:06:03;2.95;;;1.70;;
11211;SDS011;5663;50.864;12.096;2022-09-04T15:08:53;2.13;;;2.03;;
11211;SDS011;5663;50.864;12.096;2022-09-04T15:15:42;2.85;;;2.10;;
11211;SDS011;5663;50.864;12.096;2022-09-04T15:18:21;2.28;;;1.88;;
11211;SDS011;5663;50.864;12.096;2022-09-04T15:20:58;1.92;;;1.80;;
11211;SDS011;5663;50.864;12.096;2022-09-04T15:27:17;3.30;;;3.00;;
11211;SDS011;5663;50.864;12.096;2022-09-04T15:30:23;2.30;;;2.10;;
11211;SDS011;5663;50.864;12.096;2022-09-04T15:40:36;2.08;;;1.70;;
11211;SDS011;5663;50.864;12.096;2022-09-04T15:44:06;2.15;;;1.95;;
11211;SDS011;5663;50.864;12.096;2022-09-04T15:47:20;4.32;;;2.00;;
11211;SDS011;5663;50.864;12.096;2022-09-04T15:50:16;2.10;;;1.95;;
11211;SDS011;5663;50.864;12.096;2022-09-04T15:52:49;1.95;;;1.80;;
11211;SDS011;5663;50.864;12.096;2022-09-04T15:56:24;2.45;;;1.77;;
11211;SDS011;5663;50.864;12.096;2022-09-04T16:05:57;2.20;;;2.00;;
11211;SDS011;5663;50.864;12.096;2022-09-04T16:19:02;5.18;;;2.05;;
11211;SDS011;5663;50.864;12.096;2022-09-04T16:24:18;3.25;;;2.10;;
11211;SDS011;5663;50.864;12.096;2022-09-04T16:26:49;2.35;;;2.15;;
11211;SDS011;5663;50.864;12.096;2022-09-04T16:32:30;3.70;;;2.20;;
11211;SDS011;5663;50.864;12.096;2022-09-04T16:35:23;2.35;;;1.98;;
11211;SDS011;5663;50.864;12.096;2022-09-04T16:38:11;4.20;;;2.22;;
11211;SDS011;5663;50.864;12.096;2022-09-04T16:51:06;6.18;;;2.28;;
11211;SDS011;5663;50.864;12.096;2022-09-04T16:54:08;3.42;;;2.05;;
11211;SDS011;5663;50.864;12.096;2022-09-04T16:57:23;4.28;;;2.17;;
11211;SDS011;5663;50.864;12.096;2022-09-04T17:13:51;5.80;;;2.20;;
11211;SDS011;5663;50.864;12.096;2022-09-04T17:16:30;2.97;;;2.28;;
11211;SDS011;5663;50.864;12.096;2022-09-04T17:19:14;2.65;;;2.10;;
11211;SDS011;5663;50.864;12.096;2022-09-04T17:22:16;2.88;;;2.08;;
11211;SDS011;5663;50.864;12.096;2022-09-04T17:25:11;2.63;;;2.10;;
11211;SDS011;5663;50.864;12.096;2022-09-04T17:46:42;7.65;;;2.47;;
11211;SDS011;5663;50.864;12.096;2022-09-04T17:49:39;2.95;;;2.65;;
11211;SDS011;5663;50.864;12.096;2022-09-04T17:55:46;3.58;;;2.70;;
11211;SDS011;5663;50.864;12.096;2022-09-04T17:58:39;2.42;;;2.22;;
11211;SDS011;5663;50.864;12.096;2022-09-04T18:01:19;5.47;;;2.40;;
11211;SDS011;5663;50.864;12.096;2022-09-04T18:04:28;3.80;;;2.78;;
11211;SDS011;5663;50.864;12.096;2022-09-04T18:07:10;5.25;;;2.60;;
11211;SDS011;5663;50.864;12.096;2022-09-04T18:10:02;4.30;;;2.40;;
11211;SDS011;5663;50.864;12.096;2022-09-04T18:12:48;2.60;;;2.40;;
11211;SDS011;5663;50.864;12.096;2022-09-04T18:15:38;6.05;;;2.80;;
11211;SDS011;5663;50.864;12.096;2022-09-04T18:18:37;3.50;;;2.70;;
11211;SDS011;5663;50.864;12.096;2022-09-04T18:21:14;4.65;;;3.28;;
11211;SDS011;5663;50.864;12.096;2022-09-04T18:23:48;2.95;;;2.65;;
11211;SDS011;5663;50.864;12.096;2022-09-04T18:26:39;2.90;;;2.70;;
11211;SDS011;5663;50.864;12.096;2022-09-04T18:32:03;5.40;;;3.00;;
11211;SDS011;5663;50.864;12.096;2022-09-04T18:34:38;5.28;;;2.75;;
11211;SDS011;5663;50.864;12.096;2022-09-04T18:37:10;4.07;;;3.00;;
11211;SDS011;5663;50.864;12.096;2022-09-04T18:39:42;5.53;;;3.22;;
11211;SDS011;5663;50.864;12.096;2022-09-04T18:49:13;3.17;;;2.88;;
11211;SDS011;5663;50.864;12.096;2022-09-04T18:51:57;5.15;;;3.00;;
11211;SDS011;5663;50.864;12.096;2022-09-04T18:54:36;4.85;;;3.03;;
11211;SDS011;5663;50.864;12.096;2022-09-04T18:57:12;6.72;;;3.28;;
11211;SDS011;5663;50.864;12.096;2022-09-04T18:59:47;3.10;;;2.90;;
11211;SDS011;5663;50.864;12.096;2022-09-04T19:02:24;4.90;;;2.85;;
11211;SDS011;5663;50.864;12.096;2022-09-04T19:05:09;3.90;;;3.10;;
11211;SDS011;5663;50.864;12.096;2022-09-04T19:11:13;4.38;;;3.00;;
11211;SDS011;5663;50.864;12.096;2022-09-04T19:14:19;4.13;;;3.13;;
11211;SDS011;5663;50.864;12.096;2022-09-04T19:17:01;6.45;;;3.22;;
11211;SDS011;5663;50.864;12.096;2022-09-04T19:19:38;4.07;;;3.03;;
11211;SDS011;5663;50.864;12.096;2022-09-04T19:22:09;3.13;;;2.75;;
11211;SDS011;5663;50.864;12.096;2022-09-04T19:24:42;4.85;;;3.60;;
11211;SDS011;5663;50.864;12.096;2022-09-04T19:27:29;4.70;;;3.30;;
11211;SDS011;5663;50.864;12.096;2022-09-04T19:30:04;4.93;;;3.33;;
11211;SDS011;5663;50.864;12.096;2022-09-04T19:32:36;4.90;;;3.38;;
11211;SDS011;5663;50.864;12.096;2022-09-04T19:35:11;4.05;;;3.22;;
11211;SDS011;5663;50.864;12.096;2022-09-04T19:37:45;5.57;;;3.08;;
11211;SDS011;5663;50.864;12.096;2022-09-04T19:40:19;3.92;;;3.47;;
11211;SDS011;5663;50.864;12.096;2022-09-04T19:42:52;5.57;;;2.88;;
11211;SDS011;5663;50.864;12.096;2022-09-04T19:48:56;4.90;;;3.28;;
11211;SDS011;5663;50.864;12.096;2022-09-04T19:51:32;4.68;;;3.47;;
11211;SDS011;5663;50.864;12.096;2022-09-04T19:54:04;3.83;;;3.28;;
11211;SDS011;5663;50.864;12.096;2022-09-04T19:56:34;3.28;;;2.92;;
11211;SDS011;5663;50.864;12.096;2022-09-04T19:59:13;8.60;;;3.30;;
11211;SDS011;5663;50.864;12.096;2022-09-04T20:01:51;3.72;;;3.15;;
11211;SDS011;5663;50.864;12.096;2022-09-04T20:04:24;5.77;;;3.57;;
11211;SDS011;5663;50.864;12.096;2022-09-04T20:10:24;3.37;;;3.07;;
11211;SDS011;5663;50.864;12.096;2022-09-04T20:12:56;4.85;;;3.55;;
11211;SDS011;5663;50.864;12.096;2022-09-04T20:15:28;4.55;;;3.38;;
11211;SDS011;5663;50.864;12.096;2022-09-04T20:20:49;5.28;;;3.63;;
11211;SDS011;5663;50.864;12.096;2022-09-04T20:24:16;3.97;;;3.63;;
11211;SDS011;5663;50.864;12.096;2022-09-04T20:27:10;4.37;;;3.27;;
11211;SDS011;5663;50.864;12.096;2022-09-04T20:29:48;5.27;;;3.70;;
11211;SDS011;5663;50.864;12.096;2022-09-04T20:46:27;4.03;;;3.63;;
11211;SDS011;5663;50.864;12.096;2022-09-04T21:06:46;6.77;;;4.53;;
11211;SDS011;5663;50.864;12.096;2022-09-04T21:09:26;4.13;;;3.73;;
11211;SDS011;5663;50.864;12.096;2022-09-04T21:12:12;6.17;;;3.87;;
11211;SDS011;5663;50.864;12.096;2022-09-04T21:18:16;4.90;;;4.03;;
11211;SDS011;5663;50.864;12.096;2022-09-04T21:21:00;7.37;;;4.33;;
11211;SDS011;5663;50.864;12.096;2022-09-04T21:23:47;6.30;;;4.30;;
11211;SDS011;5663;50.864;12.096;2022-09-04T21:26:50;5.27;;;4.77;;
11211;SDS011;5663;50.864;12.096;2022-09-04T21:29:27;5.60;;;4.47;;
11211;SDS011;5663;50.864;12.096;2022-09-04T22:06:50;6.07;;;4.60;;
11211;SDS011;5663;50.864;12.096;2022-09-04T22:09:38;6.57;;;5.30;;
11211;SDS011;5663;50.864;12.096;2022-09-04T22:12:32;6.87;;;6.17;;
11211;SDS011;5663;50.864;12.096;2022-09-04T22:22:13;7.30;;;5.53;;
11211;SDS011;5663;50.864;12.096;2022-09-04T22:25:32;5.70;;;5.07;;
11211;SDS011;5663;50.864;12.096;2022-09-04T22:31:27;5.60;;;5.10;;
11211;SDS011;5663;50.864;12.096;2022-09-04T22:34:07;5.53;;;5.03;;
11211;SDS011;5663;50.864;12.096;2022-09-04T22:39:37;5.90;;;5.40;;
11211;SDS011;5663;50.864;12.096;2022-09-04T22:45:23;5.83;;;5.23;;
11211;SDS011;5663;50.864;12.096;2022-09-04T22:50:50;5.90;;;5.40;;
11211;SDS011;5663;50.864;12.096;2022-09-04T22:56:15;5.93;;;5.37;;
11211;SDS011;5663;50.864;12.096;2022-09-04T23:05:08;6.43;;;5.50;;
11211;SDS011;5663;50.864;12.096;2022-09-04T23:07:44;10.30;;;5.90;;
11211;SDS011;5663;50.864;12.096;2022-09-04T23:10:24;5.87;;;5.27;;
11211;SDS011;5663;50.864;12.096;2022-09-04T23:15:48;6.70;;;6.00;;
11211;SDS011;5663;50.864;12.096;2022-09-04T23:18:38;5.97;;;5.37;;
11211;SDS011;5663;50.864;12.096;2022-09-04T23:21:18;5.67;;;5.07;;
11211;SDS011;5663;50.864;12.096;2022-09-04T23:36:09;5.53;;;4.90;;
11211;SDS011;5663;50.864;12.096;2022-09-04T23:38:59;7.13;;;6.43;;
11211;SDS011;5663;50.864;12.096;2022-09-04T23:41:42;6.63;;;5.90;;
11211;SDS011;5663;50.864;12.096;2022-09-04T23:44:22;6.00;;;5.43;;
11211;SDS011;5663;50.864;12.096;2022-09-04T23:46:57;5.57;;;5.07;;
